createdAt,value
2019-04-28T00:15:57.461Z,9.44
2019-04-28T00:16:57.431Z,9.51
2019-04-28T00:17:57.415Z,9.44
2019-04-28T00:18:57.387Z,9.55
2019-04-28T00:19:57.364Z,9.54
2019-04-28T00:20:57.341Z,9.59
2019-04-28T00:21:57.320Z,9.56
2019-04-28T00:22:57.300Z,9.51
2019-04-28T00:23:57.271Z,9.58
2019-04-28T00:24:57.251Z,9.51
2019-04-28T00:25:57.228Z,9.51
2019-04-28T00:26:57.205Z,9.54
2019-04-28T00:27:57.190Z,9.59
2019-04-28T00:28:57.164Z,9.54
2019-04-28T00:30:55.775Z,9.59
2019-04-28T00:31:55.751Z,9.56
2019-04-28T00:32:55.730Z,9.51
2019-04-28T00:33:55.710Z,9.49
2019-04-28T00:34:55.682Z,9.51
2019-04-28T00:35:55.759Z,9.49
2019-04-28T00:36:55.638Z,9.48
2019-04-28T00:38:28.823Z,9.58
2019-04-28T00:39:28.851Z,9.58
2019-04-28T00:39:55.571Z,9.56
2019-04-28T00:40:55.548Z,9.55
2019-04-28T00:41:55.522Z,9.62
2019-04-28T00:42:55.499Z,9.55
2019-04-28T00:43:55.479Z,9.48
2019-04-28T00:44:55.485Z,9.55
2019-04-28T00:45:55.439Z,9.49
2019-04-28T00:46:55.408Z,9.58
2019-04-28T00:52:41.856Z,9.63
2019-04-28T00:53:41.222Z,9.59
2019-04-28T00:54:42.041Z,9.54
2019-04-28T00:55:43.795Z,9.59
2019-04-28T00:57:25.321Z,9.56
2019-04-28T00:58:25.294Z,9.44
2019-04-28T01:00:31.031Z,9.51
2019-04-28T01:02:13.414Z,9.54
2019-04-28T01:03:46.597Z,9.49
2019-04-28T01:04:46.980Z,9.45
2019-04-28T01:05:13.342Z,9.48
2019-04-28T01:06:14.041Z,9.49
2019-04-28T01:08:58.548Z,9.47
2019-04-28T01:10:31.732Z,9.45
2019-04-28T01:12:46.523Z,9.47
2019-04-28T01:14:16.772Z,9.51
2019-04-28T01:16:30.176Z,9.42
2019-04-28T01:18:01.867Z,9.49
2019-04-28T01:20:13.777Z,9.51
2019-04-28T01:21:46.961Z,9.47
2019-04-28T01:23:59.834Z,9.42
2019-04-28T01:25:32.010Z,9.48
2019-04-28T01:27:43.971Z,9.52
2019-04-28T01:29:17.156Z,9.42
2019-04-28T03:03:04.087Z,9.45
2019-04-28T03:03:30.997Z,9.47
2019-04-28T03:04:31.038Z,9.45
2019-04-28T03:06:04.020Z,9.44
2019-04-28T03:06:30.885Z,9.49
2019-04-28T03:07:31.443Z,9.48
2019-04-28T03:08:30.835Z,9.44
2019-04-28T03:09:30.878Z,9.51
2019-04-28T03:10:31.330Z,9.45
2019-04-28T03:11:31.456Z,9.42
2019-04-28T03:12:31.331Z,9.40
2019-04-28T03:13:31.371Z,9.42
2019-04-28T03:14:30.761Z,9.48
2019-04-28T03:15:30.794Z,9.39
2019-04-28T03:16:30.629Z,9.45
2019-04-28T03:17:31.147Z,9.39
2019-04-28T03:18:31.594Z,9.48
2019-04-28T03:19:33.660Z,9.44
2019-04-28T03:20:30.816Z,9.44
2019-04-28T03:21:31.278Z,9.47
2019-04-28T03:22:32.961Z,9.49
2019-04-28T03:23:31.209Z,9.45
2019-04-28T03:24:31.552Z,9.47
2019-04-28T03:25:33.345Z,9.45
2019-04-28T03:26:30.969Z,9.44
2019-04-28T03:27:31.047Z,9.39
2019-04-28T03:28:30.823Z,9.39
2019-04-28T03:29:30.554Z,9.37
2019-04-28T03:30:33.806Z,9.37
2019-04-28T03:32:04.029Z,9.39
2019-04-28T03:32:44.637Z,9.45
2019-04-28T03:33:34.025Z,9.44
2019-04-28T03:34:32.214Z,9.42
2019-04-28T03:35:32.670Z,9.44
2019-04-28T03:36:33.221Z,9.51
2019-04-28T03:37:31.597Z,9.54
2019-04-28T03:38:30.983Z,9.49
2019-04-28T03:39:30.322Z,9.44
2019-04-28T03:40:31.002Z,9.40
2019-04-28T03:41:31.080Z,9.40
2019-04-28T03:42:31.407Z,9.52
2019-04-28T03:43:30.629Z,9.54
2019-04-28T03:44:30.934Z,9.51
2019-04-28T03:45:30.685Z,9.47
2019-04-28T03:46:30.559Z,9.48
2019-04-28T03:47:31.133Z,9.47
2019-04-28T03:48:30.844Z,9.51
2019-04-28T03:49:30.740Z,9.55
2019-04-28T03:50:31.362Z,9.58
2019-04-28T03:51:30.861Z,9.63
2019-04-28T03:52:31.855Z,9.62
2019-04-28T03:53:31.200Z,9.58
2019-04-28T03:54:30.366Z,9.59
2019-04-28T03:55:31.711Z,9.62
2019-04-28T03:56:31.025Z,9.62
2019-04-28T03:57:31.397Z,9.56
2019-04-28T03:58:31.035Z,9.62
2019-04-28T03:59:31.138Z,9.63
2019-04-28T04:00:31.210Z,9.52
2019-04-28T04:01:30.490Z,9.56
2019-04-28T04:02:31.134Z,9.59
2019-04-28T04:03:30.488Z,9.62
2019-04-28T04:04:31.996Z,9.47
2019-04-28T04:05:30.644Z,9.52
2019-04-28T04:06:31.083Z,9.48
2019-04-28T04:07:31.197Z,9.55
2019-04-28T04:08:31.012Z,9.40
2019-04-28T04:09:31.200Z,9.42
2019-04-28T04:10:30.615Z,9.48
2019-04-28T04:11:31.177Z,9.44
2019-04-28T04:12:30.967Z,9.49
2019-04-28T04:13:32.730Z,9.40
2019-04-28T04:14:31.045Z,9.40
2019-04-28T04:15:30.903Z,9.48
2019-04-28T04:16:30.795Z,9.39
2019-04-28T04:17:30.508Z,9.37
2019-04-28T04:18:30.848Z,9.36
2019-04-28T04:19:30.407Z,9.37
2019-04-28T04:20:31.035Z,9.37
2019-04-28T04:21:31.042Z,9.33
2019-04-28T04:22:31.451Z,9.33
2019-04-28T04:23:30.891Z,9.42
2019-04-28T04:24:30.627Z,9.34
2019-04-28T04:25:31.130Z,9.40
2019-04-28T04:26:32.851Z,9.37
2019-04-28T04:27:30.918Z,9.29
2019-04-28T04:28:30.415Z,9.40
2019-04-28T04:29:30.956Z,9.37
2019-04-28T04:30:31.120Z,9.39
2019-04-28T04:31:31.476Z,9.39
2019-04-28T04:32:30.425Z,9.37
2019-04-28T04:33:31.064Z,9.37
2019-04-28T04:34:30.209Z,9.39
2019-04-28T04:35:31.398Z,9.36
2019-04-28T04:36:31.060Z,9.31
2019-04-28T04:37:30.790Z,9.37
2019-04-28T04:38:30.969Z,9.40
2019-04-28T04:39:30.325Z,9.45
2019-04-28T04:40:31.326Z,9.48
2019-04-28T04:41:30.557Z,9.39
2019-04-28T04:42:30.694Z,9.40
2019-04-28T04:43:30.864Z,9.36
2019-04-28T04:44:30.873Z,9.47
2019-04-28T04:45:30.498Z,9.42
2019-04-28T04:46:31.136Z,9.37
2019-04-28T04:47:32.451Z,9.42
2019-04-28T04:48:31.048Z,9.45
2019-04-28T04:49:31.467Z,9.40
2019-04-28T04:50:31.056Z,9.48
2019-04-28T04:51:30.410Z,9.47
2019-04-28T04:52:30.393Z,9.49
2019-04-28T04:53:30.690Z,9.44
2019-04-28T04:54:32.062Z,9.51
2019-04-28T04:55:30.663Z,9.42
2019-04-28T04:56:30.165Z,9.44
2019-04-28T04:57:32.230Z,9.44
2019-04-28T04:58:30.371Z,9.44
2019-04-28T04:59:30.182Z,9.40
2019-04-28T05:00:28.179Z,9.45
2019-04-28T05:01:30.303Z,9.47
2019-04-28T05:02:30.573Z,9.42
2019-04-28T05:03:29.510Z,9.42
2019-04-28T05:04:29.706Z,9.49
2019-04-28T05:05:28.070Z,9.47
2019-04-28T05:06:29.700Z,9.55
2019-04-28T05:07:29.672Z,9.47
2019-04-28T05:08:27.994Z,9.58
2019-04-28T05:09:29.339Z,9.56
2019-04-28T05:10:27.946Z,9.58
2019-04-28T05:11:29.871Z,9.59
2019-04-28T05:12:27.902Z,9.58
2019-04-28T05:13:27.879Z,9.56
2019-04-28T05:14:29.802Z,9.48
2019-04-28T05:15:27.836Z,9.54
2019-04-28T05:16:29.672Z,9.52
2019-04-28T05:17:27.798Z,9.54
2019-04-28T05:18:29.610Z,9.56
2019-04-28T05:19:27.741Z,9.62
2019-04-28T05:20:27.719Z,9.66
2019-04-28T05:21:31.153Z,9.59
2019-04-28T05:22:27.674Z,9.64
2019-04-28T05:23:27.650Z,9.58
2019-04-28T05:24:27.635Z,9.70
2019-04-28T05:25:30.915Z,9.67
2019-04-28T05:26:27.583Z,9.76
2019-04-28T05:27:27.559Z,9.69
2019-04-28T05:28:30.575Z,9.64
2019-04-28T05:29:28.212Z,9.63
2019-04-28T05:30:27.498Z,9.73
2019-04-28T05:31:27.470Z,9.80
2019-04-28T05:32:41.630Z,9.77
2019-04-28T05:33:30.648Z,9.67
2019-04-28T05:34:29.522Z,9.72
2019-04-28T05:35:29.322Z,9.73
2019-04-28T05:36:27.384Z,9.74
2019-04-28T05:37:27.341Z,9.80
2019-04-28T05:38:27.315Z,9.81
2019-04-28T05:39:27.292Z,9.82
2019-04-28T05:40:27.268Z,9.84
2019-04-28T05:41:27.304Z,9.80
2019-04-28T05:42:27.220Z,9.92
2019-04-28T05:43:27.198Z,9.97
2019-04-28T05:44:27.176Z,9.94
2019-04-28T05:45:27.289Z,9.77
2019-04-28T05:46:27.134Z,9.81
2019-04-28T05:47:27.116Z,9.92
2019-04-28T05:48:27.090Z,9.97
2019-04-28T05:49:27.068Z,9.97
2019-04-28T05:50:27.042Z,9.95
2019-04-28T05:51:27.019Z,10.02
2019-04-28T05:52:27.009Z,10.13
2019-04-28T05:53:26.980Z,10.12
2019-04-28T05:54:26.952Z,10.12
2019-04-28T05:56:10.548Z,9.97
2019-04-28T06:01:20.686Z,10.06
2019-04-28T06:02:21.880Z,10.06
2019-04-28T06:03:20.596Z,10.15
2019-04-28T06:04:23.186Z,10.21
2019-04-28T06:05:20.544Z,10.24
2019-04-28T06:06:20.534Z,10.27
2019-04-28T06:10:39.796Z,10.38
2019-04-28T06:15:49.685Z,10.39
2019-04-28T06:16:48.051Z,10.34
2019-04-28T06:17:49.780Z,10.31
2019-04-28T06:18:49.967Z,10.43
2019-04-28T06:19:50.251Z,10.34
2019-04-28T06:20:49.678Z,10.39
2019-04-28T06:21:47.940Z,10.49
2019-04-28T06:22:47.914Z,10.58
2019-04-28T06:23:47.895Z,10.69
2019-04-28T06:24:47.884Z,10.77
2019-04-28T06:25:47.908Z,10.77
2019-04-28T06:26:47.831Z,10.84
2019-04-28T06:27:47.810Z,10.87
2019-04-28T06:28:47.789Z,10.79
2019-04-28T06:29:47.771Z,10.77
2019-04-28T06:30:47.756Z,10.76
2019-04-28T06:31:47.729Z,10.65
2019-04-28T06:32:47.707Z,10.71
2019-04-28T06:33:47.678Z,10.89
2019-04-28T06:34:47.656Z,10.87
2019-04-28T06:35:47.634Z,10.90
2019-04-28T06:36:47.622Z,11.04
2019-04-28T06:37:47.594Z,11.01
2019-04-28T06:38:47.577Z,11.07
2019-04-28T06:39:47.560Z,11.00
2019-04-28T06:40:47.526Z,10.87
2019-04-28T06:41:47.506Z,11.02
2019-04-28T06:42:47.491Z,10.86
2019-04-28T06:43:47.471Z,10.87
2019-04-28T06:44:47.446Z,11.00
2019-04-28T06:45:47.423Z,11.04
2019-04-28T06:46:47.404Z,11.05
2019-04-28T06:47:47.384Z,11.04
2019-04-28T06:48:47.368Z,11.05
2019-04-28T06:49:47.344Z,11.07
2019-04-28T06:50:47.318Z,11.05
2019-04-28T06:51:47.335Z,11.20
2019-04-28T06:52:47.278Z,11.34
2019-04-28T06:53:47.268Z,11.44
2019-04-28T06:54:47.235Z,11.37
2019-04-28T06:55:47.216Z,11.23
2019-04-28T06:56:47.198Z,11.08
2019-04-28T06:57:47.186Z,11.02
2019-04-28T06:58:58.460Z,11.04
2019-04-28T06:59:47.141Z,11.02
2019-04-28T07:00:47.111Z,11.02
2019-04-28T07:01:47.091Z,11.10
2019-04-28T07:02:47.069Z,11.13
2019-04-28T07:03:47.051Z,11.08
2019-04-28T07:04:47.037Z,11.23
2019-04-28T07:05:47.011Z,11.43
2019-04-28T07:06:46.990Z,11.35
2019-04-28T07:07:47.001Z,11.41
2019-04-28T07:08:46.948Z,11.56
2019-04-28T07:09:46.931Z,11.51
2019-04-28T07:10:46.910Z,11.51
2019-04-28T07:11:46.888Z,11.60
2019-04-28T07:12:46.870Z,11.63
2019-04-28T07:13:46.857Z,11.60
2019-04-28T07:14:46.829Z,11.62
2019-04-28T07:15:46.990Z,11.60
2019-04-28T07:16:46.788Z,11.73
2019-04-28T07:17:46.768Z,11.77
2019-04-28T07:18:46.761Z,11.95
2019-04-28T07:19:46.731Z,11.96
2019-04-28T07:21:40.394Z,12.15
2019-04-28T07:22:40.381Z,12.14
2019-04-28T07:23:40.364Z,11.80
2019-04-28T07:24:40.337Z,11.56
2019-04-28T07:25:40.314Z,11.63
2019-04-28T07:26:40.297Z,11.55
2019-04-28T07:27:40.276Z,11.67
2019-04-28T07:29:13.469Z,11.60
2019-04-28T07:29:40.241Z,11.62
2019-04-28T07:30:40.217Z,11.49
2019-04-28T07:31:40.199Z,11.31
2019-04-28T07:33:13.397Z,11.35
2019-04-28T07:34:13.369Z,11.37
2019-04-28T07:34:40.148Z,11.33
2019-04-28T07:35:40.122Z,11.45
2019-04-28T07:38:25.751Z,11.80
2019-04-28T07:39:25.732Z,11.81
2019-04-28T07:40:25.709Z,11.85
2019-04-28T07:41:25.697Z,11.78
2019-04-28T07:42:25.673Z,11.81
2019-04-28T07:43:25.653Z,11.89
2019-04-28T07:44:25.646Z,11.96
2019-04-28T07:45:58.825Z,12.12
2019-04-28T07:46:25.611Z,12.15
2019-04-28T07:47:58.785Z,12.00
2019-04-28T07:48:58.776Z,11.85
2019-04-28T07:49:58.767Z,11.85
2019-04-28T07:50:25.628Z,11.89
2019-04-28T07:53:11.156Z,12.00
2019-04-28T09:44:26.588Z,11.60
2019-04-28T09:44:53.384Z,11.70
2019-04-28T09:45:53.366Z,11.73
2019-04-28T09:46:53.318Z,11.91
2019-04-28T09:47:53.302Z,12.00
2019-04-28T09:48:53.279Z,12.12
2019-04-28T09:49:53.266Z,12.21
2019-04-28T09:50:54.666Z,12.18
2019-04-28T09:51:53.219Z,12.21
2019-04-28T09:52:53.200Z,12.26
2019-04-28T09:53:53.188Z,12.26
2019-04-28T09:54:53.169Z,12.36
2019-04-28T09:55:53.150Z,12.55
2019-04-28T09:56:56.898Z,12.63
2019-04-28T09:57:54.832Z,12.76
2019-04-28T09:58:53.082Z,12.91
2019-04-28T09:59:53.063Z,13.08
2019-04-28T10:00:53.043Z,13.31
2019-04-28T10:01:53.027Z,13.45
2019-04-28T10:02:53.014Z,13.43
2019-04-28T10:03:53.049Z,13.55
2019-04-28T10:04:52.969Z,13.57
2019-04-28T10:05:52.951Z,13.58
2019-04-28T10:06:52.932Z,13.75
2019-04-28T10:07:52.919Z,13.97
2019-04-28T10:08:52.902Z,14.13
2019-04-28T10:09:52.900Z,14.22
2019-04-28T10:10:52.867Z,14.12
2019-04-28T10:11:52.844Z,14.25
2019-04-28T10:12:52.827Z,14.01
2019-04-28T10:13:52.809Z,14.20
2019-04-28T10:14:52.796Z,14.16
2019-04-28T10:15:52.776Z,14.28
2019-04-28T10:16:52.760Z,14.36
2019-04-28T10:17:54.160Z,14.38
2019-04-28T10:18:52.720Z,14.38
2019-04-28T10:19:52.724Z,14.40
2019-04-28T10:20:52.692Z,14.43
2019-04-28T10:21:52.686Z,14.44
2019-04-28T10:22:52.670Z,14.28
2019-04-28T10:23:52.635Z,14.28
2019-04-28T10:24:52.618Z,14.25
2019-04-28T10:25:52.603Z,14.26
2019-04-28T10:26:52.587Z,14.37
2019-04-28T10:27:52.577Z,14.22
2019-04-28T10:28:52.548Z,14.07
2019-04-28T10:29:55.151Z,13.95
2019-04-28T10:32:07.038Z,13.98
2019-04-28T10:35:54.758Z,14.25
2019-04-28T10:37:25.466Z,14.16
2019-04-28T10:37:52.846Z,14.34
2019-04-28T10:38:52.030Z,14.44
2019-04-28T10:39:52.010Z,14.40
2019-04-28T10:42:06.187Z,14.49
2019-04-28T10:45:43.262Z,15.15
2019-04-28T10:47:16.455Z,15.14
2019-04-28T10:47:43.224Z,15.14
2019-04-28T10:48:43.259Z,15.25
2019-04-28T10:49:43.201Z,15.78
2019-04-28T10:52:59.649Z,16.37
2019-04-28T10:54:31.620Z,16.59
2019-04-28T10:54:58.409Z,16.09
2019-04-28T10:56:31.601Z,15.84
2019-04-28T10:58:43.524Z,15.30
2019-04-28T11:00:16.715Z,15.04
2019-04-28T11:00:43.489Z,14.38
2019-04-28T11:03:28.628Z,13.21
2019-04-28T11:05:08.244Z,13.28
2019-04-28T11:05:28.600Z,13.42
2019-04-28T11:08:13.786Z,13.57
2019-04-28T11:10:48.920Z,13.36
2019-04-28T11:12:22.114Z,12.90
2019-04-28T11:12:48.885Z,12.75
2019-04-28T11:49:23.004Z,18.88
2019-04-28T11:49:49.775Z,19.00
2019-04-28T11:50:49.772Z,18.97
2019-04-28T11:54:08.065Z,18.86
2019-04-28T11:55:08.074Z,18.94
2019-04-28T11:57:53.093Z,18.79
2019-04-28T11:58:53.082Z,18.94
2019-04-28T12:01:38.127Z,18.12
2019-04-28T12:02:38.108Z,17.91
2019-04-28T13:14:58.043Z,12.66
2019-04-28T14:05:45.301Z,14.73
2019-04-28T14:05:52.830Z,14.77
2019-04-28T14:06:52.828Z,14.74
2019-04-28T14:07:52.813Z,14.93
2019-04-28T14:08:52.783Z,14.90
2019-04-28T14:09:52.777Z,14.94
2019-04-28T14:10:52.753Z,15.00
2019-04-28T14:11:52.734Z,14.99
2019-04-28T14:12:52.721Z,14.99
2019-04-28T14:13:52.702Z,15.00
2019-04-28T14:14:52.704Z,15.14
2019-04-28T14:15:52.659Z,15.18
2019-04-28T14:16:52.654Z,15.30
2019-04-28T14:17:52.678Z,15.26
2019-04-28T14:18:52.657Z,15.27
2019-04-28T14:19:52.614Z,15.29
2019-04-28T14:20:52.588Z,15.26
2019-04-28T14:21:52.613Z,15.18
2019-04-28T14:22:52.541Z,15.02
2019-04-28T14:23:52.533Z,14.89
2019-04-28T14:24:52.568Z,14.81
2019-04-28T14:25:52.559Z,14.82
2019-04-28T14:26:52.475Z,14.86
2019-04-28T14:27:52.458Z,14.78
2019-04-28T14:28:52.450Z,14.90
2019-04-28T14:29:52.421Z,14.82
2019-04-28T14:30:52.408Z,14.74
2019-04-28T14:31:52.461Z,14.53
2019-04-28T14:32:52.386Z,14.58
2019-04-28T14:33:52.371Z,14.61
2019-04-28T14:34:52.353Z,14.67
2019-04-28T14:35:52.326Z,14.85
2019-04-28T14:36:52.310Z,14.90
2019-04-28T14:37:52.295Z,14.89
2019-04-28T14:38:52.285Z,14.90
2019-04-28T14:39:52.286Z,14.92
2019-04-28T14:40:52.323Z,14.82
2019-04-28T14:41:52.222Z,14.82
2019-04-28T14:42:52.203Z,14.87
2019-04-28T14:43:52.184Z,14.90
2019-04-28T14:44:52.160Z,14.92
2019-04-28T14:45:52.169Z,14.94
2019-04-28T14:46:52.164Z,14.87
2019-04-28T14:47:52.130Z,14.90
2019-04-28T14:48:52.106Z,14.89
2019-04-28T14:49:52.139Z,14.79
2019-04-28T14:50:52.066Z,14.87
2019-04-28T14:51:52.049Z,14.90
2019-04-28T14:52:52.023Z,14.92
2019-04-28T14:53:52.006Z,14.94
2019-04-28T14:54:51.990Z,15.10
2019-04-28T14:55:51.992Z,15.05
2019-04-28T14:56:51.959Z,15.05
2019-04-28T14:57:52.021Z,15.05
2019-04-28T14:58:51.927Z,14.99
2019-04-28T14:59:51.952Z,15.15
2019-04-28T15:00:51.898Z,15.29
2019-04-28T15:01:51.879Z,15.14
2019-04-28T15:02:51.911Z,15.10
2019-04-28T15:03:51.834Z,15.08
2019-04-28T15:04:51.817Z,15.10
2019-04-28T15:05:51.810Z,14.97
2019-04-28T15:06:55.775Z,14.92
2019-04-28T15:07:51.802Z,14.87
2019-04-28T15:08:51.844Z,14.90
2019-04-28T15:09:51.811Z,14.89
2019-04-28T15:10:51.727Z,14.93
2019-04-28T15:11:51.714Z,14.87
2019-04-28T15:12:51.686Z,14.99
2019-04-28T15:13:51.679Z,14.99
2019-04-28T15:14:51.700Z,14.89
2019-04-28T15:15:51.647Z,14.89
2019-04-28T15:16:51.663Z,14.96
2019-04-28T15:17:51.666Z,14.77
2019-04-28T15:18:51.578Z,14.86
2019-04-28T15:19:51.575Z,14.92
2019-04-28T15:20:51.552Z,14.93
2019-04-28T15:21:54.470Z,14.81
2019-04-28T15:22:51.512Z,14.93
2019-04-28T15:23:51.502Z,15.00
2019-04-28T15:24:51.473Z,15.05
2019-04-28T15:25:51.453Z,15.00
2019-04-28T15:26:51.441Z,14.96
2019-04-28T15:27:51.419Z,15.00
2019-04-28T15:28:51.405Z,14.68
2019-04-28T15:29:51.386Z,14.59
2019-04-28T15:30:51.372Z,14.41
2019-04-28T15:31:51.351Z,14.49
2019-04-28T15:32:51.337Z,14.40
2019-04-28T15:33:51.323Z,14.34
2019-04-28T15:34:51.300Z,14.18
2019-04-28T15:35:51.277Z,14.01
2019-04-28T15:36:51.268Z,14.16
2019-04-28T15:37:51.252Z,14.05
2019-04-28T15:38:51.230Z,14.13
2019-04-28T15:39:51.207Z,14.23
2019-04-28T15:40:51.198Z,14.31
2019-04-28T15:41:51.174Z,14.36
2019-04-28T15:42:51.154Z,14.20
2019-04-28T15:43:51.148Z,14.04
2019-04-28T15:44:51.128Z,13.95
2019-04-28T15:45:51.104Z,13.87
2019-04-28T15:46:51.084Z,14.00
2019-04-28T15:47:51.072Z,14.01
2019-04-28T15:48:51.067Z,14.16
2019-04-28T15:49:51.033Z,14.13
2019-04-28T15:50:51.012Z,14.13
2019-04-28T15:51:51.000Z,14.01
2019-04-28T15:52:51.006Z,13.97
2019-04-28T15:53:50.961Z,13.97
2019-04-28T15:54:50.954Z,13.91
2019-04-28T15:55:50.940Z,13.87
2019-04-28T15:56:50.906Z,13.80
2019-04-28T15:57:50.899Z,13.75
2019-04-28T15:58:50.876Z,13.71
2019-04-28T15:59:50.846Z,13.60
2019-04-28T16:00:50.849Z,13.57
2019-04-28T16:01:50.826Z,13.64
2019-04-28T16:02:50.793Z,13.67
2019-04-28T16:03:50.776Z,13.61
2019-04-28T16:04:50.771Z,13.43
2019-04-28T16:05:50.746Z,13.58
2019-04-28T16:06:50.742Z,13.52
2019-04-28T16:07:50.699Z,13.54
2019-04-28T16:08:50.702Z,13.54
2019-04-28T16:09:50.687Z,13.43
2019-04-28T16:10:50.644Z,13.40
2019-04-28T16:11:50.633Z,13.27
2019-04-28T16:12:50.624Z,13.40
2019-04-28T16:13:50.598Z,13.42
2019-04-28T16:14:50.577Z,13.58
2019-04-28T16:15:50.548Z,13.46
2019-04-28T16:16:50.531Z,13.55
2019-04-28T16:17:50.528Z,13.57
2019-04-28T16:18:50.500Z,13.60
2019-04-28T16:19:50.488Z,13.62
2019-04-28T16:20:50.458Z,13.54
2019-04-28T16:21:50.763Z,13.52
2019-04-28T16:22:50.827Z,13.46
2019-04-28T16:23:50.397Z,13.39
2019-04-28T16:24:50.377Z,13.19
2019-04-28T16:25:50.372Z,13.08
2019-04-28T16:26:50.337Z,13.03
2019-04-28T16:27:50.340Z,13.05
2019-04-28T16:28:50.299Z,13.01
2019-04-28T16:29:50.285Z,13.06
2019-04-28T16:30:50.263Z,13.08
2019-04-28T16:31:50.254Z,13.09
2019-04-28T16:32:50.225Z,13.09
2019-04-28T16:33:50.254Z,13.11
2019-04-28T16:34:50.188Z,13.08
2019-04-28T16:35:50.186Z,13.12
2019-04-28T16:36:50.149Z,13.28
2019-04-28T16:37:50.142Z,13.23
2019-04-28T16:38:50.166Z,13.36
2019-04-28T16:39:50.089Z,13.43
2019-04-28T16:40:50.066Z,13.39
2019-04-28T16:41:50.052Z,13.40
2019-04-28T16:42:50.038Z,13.20
2019-04-28T16:44:54.068Z,13.21
2019-04-28T16:45:54.039Z,13.16
2019-04-28T16:46:54.024Z,13.13
2019-04-28T16:47:54.003Z,13.13
2019-04-28T16:48:53.989Z,13.13
2019-04-28T16:49:53.981Z,13.08
2019-04-28T16:50:53.951Z,13.09
2019-04-28T16:51:53.923Z,13.13
2019-04-28T16:52:53.910Z,13.19
2019-04-28T16:53:53.893Z,13.28
2019-04-28T16:54:53.868Z,13.36
2019-04-28T16:55:53.855Z,13.31
2019-04-28T16:56:53.844Z,13.28
2019-04-28T16:57:53.809Z,13.36
2019-04-28T16:58:53.811Z,13.39
2019-04-28T16:59:53.772Z,13.33
2019-04-28T17:00:53.746Z,13.43
2019-04-28T17:01:53.748Z,13.52
2019-04-28T17:02:53.762Z,13.54
2019-04-28T17:03:53.687Z,13.58
2019-04-28T17:04:53.688Z,13.61
2019-04-28T17:05:53.661Z,13.31
2019-04-28T17:06:53.644Z,13.21
2019-04-28T17:07:53.629Z,13.30
2019-04-28T17:08:56.821Z,13.24
2019-04-28T17:09:53.574Z,13.21
2019-04-28T17:10:53.545Z,13.12
2019-04-28T17:11:53.528Z,13.12
2019-04-28T17:12:53.510Z,12.99
2019-04-28T17:13:53.501Z,13.01
2019-04-28T17:14:53.466Z,13.02
2019-04-28T17:15:53.469Z,13.05
2019-04-28T17:16:53.425Z,13.09
2019-04-28T17:17:53.413Z,13.16
2019-04-28T17:18:53.386Z,13.11
2019-04-28T17:19:53.367Z,13.08
2019-04-28T17:20:55.053Z,13.06
2019-04-28T17:21:53.333Z,13.09
2019-04-28T17:22:53.311Z,13.02
2019-04-28T17:23:53.287Z,13.02
2019-04-28T17:24:53.284Z,13.05
2019-04-28T17:25:53.250Z,13.12
2019-04-28T17:26:53.234Z,13.11
2019-04-28T17:27:53.207Z,13.11
2019-04-28T17:28:53.184Z,13.12
2019-04-28T17:29:53.182Z,13.13
2019-04-28T17:30:53.144Z,13.12
2019-04-28T17:31:53.132Z,13.09
2019-04-28T17:32:53.102Z,13.05
2019-04-28T17:33:53.088Z,12.98
2019-04-28T17:34:53.075Z,13.02
2019-04-28T17:35:53.044Z,13.03
2019-04-28T17:36:53.033Z,12.91
2019-04-28T17:38:06.006Z,12.91
2019-04-28T17:38:56.626Z,12.99
2019-04-28T17:39:52.964Z,12.95
2019-04-28T17:40:52.957Z,13.02
2019-04-28T17:41:52.929Z,13.02
2019-04-28T17:42:52.903Z,13.09
2019-04-28T17:43:52.886Z,12.95
2019-04-28T17:44:52.920Z,13.01
2019-04-28T17:45:52.863Z,13.11
2019-04-28T17:46:52.823Z,13.09
2019-04-28T17:47:52.807Z,13.11
2019-04-28T17:48:52.793Z,13.08
2019-04-28T17:49:52.782Z,13.09
2019-04-28T17:50:52.759Z,13.09
2019-04-28T17:51:52.731Z,13.06
2019-04-28T17:52:52.707Z,13.12
2019-04-28T17:53:52.677Z,13.16
2019-04-28T17:54:52.666Z,13.24
2019-04-28T17:55:52.643Z,13.26
2019-04-28T17:56:52.618Z,13.21
2019-04-28T17:57:52.621Z,13.21
2019-04-28T17:58:52.587Z,13.23
2019-04-28T17:59:52.639Z,13.20
2019-04-28T18:00:52.591Z,13.24
2019-04-28T18:01:52.526Z,13.33
2019-04-28T18:02:52.510Z,13.39
2019-04-28T18:03:52.486Z,13.33
2019-04-28T18:04:52.468Z,13.31
2019-04-28T18:05:52.489Z,13.36
2019-04-28T18:06:52.424Z,13.28
2019-04-28T18:07:52.408Z,13.39
2019-04-28T18:08:52.384Z,13.31
2019-04-28T18:09:52.354Z,13.23
2019-04-28T18:10:52.334Z,13.21
2019-04-28T18:11:52.335Z,13.19
2019-04-28T18:13:00.261Z,13.13
2019-04-28T18:13:52.385Z,13.12
2019-04-28T18:14:52.256Z,13.08
2019-04-28T18:15:52.247Z,13.03
2019-04-28T18:16:52.228Z,12.94
2019-04-28T18:17:52.213Z,12.88
2019-04-28T18:18:52.184Z,12.86
2019-04-28T18:19:52.173Z,12.62
2019-04-28T18:20:52.235Z,12.62
2019-04-28T18:21:52.116Z,12.54
2019-04-28T18:22:52.088Z,12.51
2019-04-28T18:23:52.071Z,12.43
2019-04-28T18:24:52.048Z,12.43
2019-04-28T18:25:52.035Z,12.43
2019-04-28T18:26:52.008Z,12.44
2019-04-28T18:27:52.008Z,12.33
2019-04-28T18:28:51.982Z,12.33
2019-04-28T18:29:51.959Z,12.29
2019-04-28T18:30:51.928Z,12.33
2019-04-28T18:31:51.914Z,12.32
2019-04-28T18:32:51.898Z,12.30
2019-04-28T18:33:51.869Z,12.25
2019-04-28T18:34:51.859Z,12.30
2019-04-28T18:35:51.840Z,12.23
2019-04-28T18:37:35.738Z,12.25
2019-04-28T18:38:35.710Z,12.21
2019-04-28T18:39:35.690Z,12.08
2019-04-28T18:40:35.667Z,12.12
2019-04-28T18:41:35.651Z,12.15
2019-04-28T18:42:35.726Z,12.14
2019-04-28T18:44:08.824Z,12.07
2019-04-28T18:44:35.581Z,12.07
2019-04-28T18:46:08.775Z,12.03
2019-04-28T18:47:08.802Z,11.93
2019-04-28T18:48:08.733Z,11.91
2019-04-28T18:48:36.280Z,11.86
2019-04-28T18:50:08.685Z,11.86
2019-04-28T18:50:35.464Z,11.81
2019-04-28T18:51:35.445Z,11.80
2019-04-28T18:52:35.443Z,11.83
2019-04-28T18:53:35.394Z,11.77
2019-04-28T18:54:35.380Z,11.81
2019-04-28T18:55:35.367Z,11.86
2019-04-28T18:58:55.456Z,11.74
2019-04-28T18:59:24.312Z,11.76
2019-04-28T19:00:55.417Z,11.68
2019-04-28T19:01:22.193Z,11.76
2019-04-28T19:02:22.169Z,11.71
2019-04-28T19:03:22.196Z,11.77
2019-04-28T19:04:22.145Z,11.65
2019-04-28T19:05:22.103Z,11.67
2019-04-28T19:07:04.866Z,11.63
2019-04-28T19:07:22.068Z,11.58
2019-04-28T19:08:22.044Z,11.60
2019-04-28T19:09:22.021Z,11.58
2019-04-28T19:10:22.017Z,11.48
2019-04-28T19:11:22.052Z,11.56
2019-04-28T19:12:21.955Z,11.40
2019-04-28T19:13:21.934Z,11.41
2019-04-28T19:14:21.928Z,11.45
2019-04-28T19:15:21.893Z,11.40
2019-04-28T19:16:21.869Z,11.43
2019-04-28T20:41:40.521Z,10.10
2019-04-28T20:43:07.416Z,10.15
2019-04-28T20:44:07.455Z,10.10
2019-04-28T20:44:34.164Z,10.09
2019-04-28T20:45:34.151Z,10.10
2019-04-28T20:48:19.326Z,10.05
2019-04-28T21:03:52.875Z,9.74
2019-04-28T21:04:52.872Z,9.80
2019-04-28T21:05:52.824Z,9.69
2019-04-28T21:06:19.603Z,9.66
2019-04-28T21:07:25.833Z,9.67
2019-04-28T21:08:25.821Z,9.66
2019-04-28T21:09:19.524Z,9.62
2019-04-28T21:10:19.511Z,9.59
2019-04-28T21:11:19.482Z,9.62
2019-04-28T21:12:19.459Z,9.58
2019-04-28T21:13:19.449Z,9.63
2019-04-28T21:14:20.787Z,9.62
2019-04-28T21:15:19.399Z,9.59
2019-04-28T21:16:19.371Z,9.64
2019-04-28T21:17:19.347Z,9.58
2019-04-28T21:18:19.327Z,9.58
2019-04-28T21:19:19.304Z,9.59
2019-04-28T21:20:19.343Z,9.62
2019-04-28T21:21:19.266Z,9.62
2019-04-28T21:22:19.237Z,9.56
2019-04-28T21:23:19.224Z,9.56
2019-04-28T21:24:19.197Z,9.58
2019-04-28T21:25:19.184Z,9.48
2019-04-28T21:26:19.153Z,9.45
2019-04-28T21:27:19.129Z,9.52
2019-04-28T21:28:19.110Z,9.45
2019-04-28T21:29:19.085Z,9.49
2019-04-28T21:30:19.074Z,9.44
2019-04-28T21:31:19.062Z,9.45
2019-04-28T21:32:19.020Z,9.40
2019-04-28T21:33:19.013Z,9.40
2019-04-28T21:34:18.989Z,9.31
2019-04-28T21:35:18.954Z,9.30
2019-04-28T21:36:18.943Z,9.33
2019-04-28T21:37:18.908Z,9.30
2019-04-28T21:38:18.890Z,9.33
2019-04-28T21:39:18.868Z,9.36
2019-04-28T21:40:18.843Z,9.33
2019-04-28T21:41:18.818Z,9.21
2019-04-28T21:42:18.795Z,9.27
2019-04-28T21:43:18.773Z,9.26
2019-04-28T21:44:18.762Z,9.16
2019-04-28T21:45:18.747Z,9.21
2019-04-28T21:46:18.713Z,9.12
2019-04-28T21:47:18.694Z,9.15
2019-04-28T21:48:18.672Z,9.05
2019-04-28T21:49:18.647Z,9.03
2019-04-28T21:50:18.740Z,9.12
2019-04-28T21:51:18.599Z,9.09
2019-04-28T21:52:18.580Z,9.02
2019-04-28T21:53:18.652Z,9.05
2019-04-28T21:54:18.540Z,9.11
2019-04-28T21:55:18.513Z,9.12
2019-04-28T21:56:18.485Z,9.05